Time;durP1;ratioP1;P1;durP2;ratioP2;P2;SDS_P1;SDS_P2;PMS_P1;PMS_P2;Temp;Humidity;BMP_temperature;BMP_pressure;BME280_temperature;BME280_humidity;BME280_pressure;Samples;Min_cycle;Max_cycle;Signal;HPM_P1;HPM_P2
2021/01/20 00:00:59;;;;;;;1.10;0.70;;;3.60;99.90;;;;;;5036071;28;20502;-86
2021/01/20 00:03:27;;;;;;;1.90;1.50;;;3.40;99.90;;;;;;5036113;28;20805;-84
2021/01/20 00:05:54;;;;;;;1.70;1.20;;;3.30;99.90;;;;;;5036222;28;20808;-86
2021/01/20 00:08:21;;;;;;;1.67;1.00;;;3.20;99.90;;;;;;5034565;28;20448;-84
2021/01/20 00:10:47;;;;;;;1.27;0.73;;;3.00;99.90;;;;;;5035766;28;20451;-84
2021/01/20 00:13:15;;;;;;;1.53;1.07;;;;;;;;;;5035804;28;20452;-85
2021/01/20 00:15:42;;;;;;;1.57;1.10;;;;;;;;;;5036153;28;20553;-85
2021/01/20 00:18:08;;;;;;;2.83;1.13;;;2.90;99.90;;;;;;5035613;28;20440;-86
2021/01/20 00:20:35;;;;;;;1.70;1.27;;;2.80;99.90;;;;;;5041740;28;20479;-85
2021/01/20 00:23:02;;;;;;;1.00;0.60;;;3.00;99.90;;;;;;5034274;28;20447;-84
2021/01/20 00:25:28;;;;;;;3.43;1.47;;;;;;;;;;5035762;28;20447;-84
2021/01/20 00:27:55;;;;;;;2.37;1.80;;;2.80;99.90;;;;;;5035424;28;20451;-85
2021/01/20 00:30:22;;;;;;;1.67;1.33;;;2.70;99.90;;;;;;5035580;28;20450;-84
2021/01/20 00:32:49;;;;;;;0.60;0.40;;;2.60;99.90;;;;;;5035601;28;20452;-85
2021/01/20 00:35:17;;;;;;;1.27;1.17;;;2.90;99.90;;;;;;5035499;28;20448;-84
2021/01/20 00:37:43;;;;;;;1.00;0.80;;;;;;;;;;5033776;28;20450;-85
2021/01/20 00:40:11;;;;;;;1.10;0.70;;;3.00;99.90;;;;;;5035429;28;21073;-84
2021/01/20 00:42:38;;;;;;;1.80;1.40;;;3.10;99.90;;;;;;5035084;28;20467;-84
2021/01/20 00:45:05;;;;;;;2.60;0.80;;;2.40;99.90;;;;;;5035424;28;20450;-85
2021/01/20 00:47:31;;;;;;;0.80;0.70;;;3.00;99.90;;;;;;5016947;28;20447;-86
2021/01/20 00:49:58;;;;;;;1.10;0.80;;;3.20;99.90;;;;;;5035446;28;20454;-83
2021/01/20 00:52:24;;;;;;;1.60;1.00;;;2.90;99.90;;;;;;5033218;28;20501;-84
2021/01/20 00:54:50;;;;;;;2.10;1.40;;;2.90;99.90;;;;;;5034804;28;20462;-84
2021/01/20 00:57:17;;;;;;;2.40;1.30;;;3.80;99.90;;;;;;5031835;28;20481;-85
2021/01/20 00:59:43;;;;;;;0.80;0.60;;;3.10;99.90;;;;;;5034739;28;20440;-85
2021/01/20 01:02:10;;;;;;;1.83;1.33;;;2.60;99.90;;;;;;5035056;28;20495;-85
2021/01/20 01:04:36;;;;;;;1.77;1.00;;;;;;;;;;5035137;28;20487;-84
2021/01/20 01:07:03;;;;;;;1.37;0.93;;;2.80;99.90;;;;;;5033445;28;20482;-86
2021/01/20 01:09:29;;;;;;;2.13;1.20;;;;;;;;;;5034914;28;20509;-86
2021/01/20 01:11:56;;;;;;;2.30;0.43;;;;;;;;;;5035056;28;20456;-85
2021/01/20 01:14:23;;;;;;;2.70;1.50;;;3.00;99.90;;;;;;5034819;28;20939;-86
2021/01/20 01:16:49;;;;;;;1.80;1.07;;;3.50;99.90;;;;;;5034617;28;20459;-84
2021/01/20 01:19:16;;;;;;;2.17;0.60;;;;;;;;;;5034785;28;20488;-86
2021/01/20 01:21:43;;;;;;;0.53;0.53;;;3.10;99.90;;;;;;5033124;28;20495;-86
2021/01/20 01:24:09;;;;;;;1.67;0.80;;;3.00;99.90;;;;;;5034632;28;20467;-85
2021/01/20 01:26:36;;;;;;;2.73;1.17;;;;;;;;;;5034461;28;20981;-86
2021/01/20 01:29:02;;;;;;;0.50;0.50;;;3.30;99.90;;;;;;5033360;28;20501;-85
2021/01/20 01:31:29;;;;;;;1.33;0.70;;;3.10;99.90;;;;;;5034782;28;20920;-84
2021/01/20 01:33:55;;;;;;;2.47;0.90;;;3.40;99.90;;;;;;5034552;28;20513;-85
2021/01/20 01:36:22;;;;;;;0.60;0.40;;;3.60;99.90;;;;;;5033362;28;20459;-87
2021/01/20 01:38:48;;;;;;;1.60;0.90;;;3.50;99.90;;;;;;5034537;28;20459;-84
2021/01/20 01:41:14;;;;;;;1.57;0.90;;;3.40;99.90;;;;;;5034524;28;20510;-85
2021/01/20 01:43:40;;;;;;;1.70;1.00;;;;;;;;;;5034382;28;20447;-86
2021/01/20 01:46:07;;;;;;;0.93;0.60;;;3.30;99.90;;;;;;5034642;28;20451;-85
2021/01/20 01:48:34;;;;;;;1.23;1.10;;;3.50;99.90;;;;;;5038412;28;20451;-86
2021/01/20 01:51:00;;;;;;;2.20;0.70;;;;;;;;;;5033458;28;20451;-85
2021/01/20 01:53:27;;;;;;;1.87;1.10;;;3.20;99.90;;;;;;5032967;28;20447;-85
2021/01/20 01:55:53;;;;;;;0.73;0.50;;;3.20;99.90;;;;;;5034198;28;20456;-86
2021/01/20 01:58:20;;;;;;;1.13;0.63;;;3.10;99.90;;;;;;5033593;28;20964;-85
2021/01/20 02:00:46;;;;;;;1.30;0.80;;;3.40;99.90;;;;;;5034023;28;20483;-85
2021/01/20 02:03:13;;;;;;;1.53;0.93;;;3.40;99.90;;;;;;5033957;28;20476;-84
2021/01/20 02:05:40;;;;;;;1.53;1.00;;;3.20;99.90;;;;;;5033956;28;20454;-84
2021/01/20 02:08:08;;;;;;;1.40;1.13;;;2.80;99.90;;;;;;5032592;28;20457;-83
2021/01/20 02:10:34;;;;;;;1.37;0.77;;;3.20;99.90;;;;;;5033727;28;20486;-85
2021/01/20 02:13:13;;;;;;;1.10;0.90;;;3.10;99.90;;;;;;5033875;28;20471;-85
2021/01/20 02:15:43;;;;;;;3.67;1.67;;;3.10;99.90;;;;;;5033796;28;20926;-86
2021/01/20 02:18:14;;;;;;;1.40;1.00;;;3.00;99.90;;;;;;5033740;28;20947;-85
2021/01/20 02:21:09;;;;;;;0.90;0.80;;;2.70;99.90;;;;;;5032869;28;20491;-86
2021/01/20 02:23:40;;;;;;;2.10;1.00;;;2.70;99.90;;;;;;5032526;28;20439;-87
2021/01/20 02:26:30;;;;;;;1.30;1.10;;;3.00;99.90;;;;;;5033644;28;20505;-84
2021/01/20 02:29:10;;;;;;;1.67;0.70;;;3.30;99.90;;;;;;5029928;28;20463;-86
2021/01/20 02:31:38;;;;;;;1.37;1.03;;;2.90;99.90;;;;;;5033561;28;20454;-86
2021/01/20 02:34:11;;;;;;;0.80;0.80;;;3.20;99.90;;;;;;5033268;28;20826;-86
2021/01/20 02:36:40;;;;;;;1.47;0.90;;;3.40;99.90;;;;;;5032344;28;20456;-86
2021/01/20 02:39:07;;;;;;;2.03;1.17;;;3.20;99.90;;;;;;5033439;28;20435;-86
2021/01/20 02:41:34;;;;;;;1.67;0.90;;;3.30;99.90;;;;;;5032882;28;20552;-86
2021/01/20 02:44:01;;;;;;;0.80;0.63;;;3.30;99.90;;;;;;5033281;28;20459;-84
2021/01/20 02:46:28;;;;;;;1.53;1.10;;;3.00;99.90;;;;;;5033305;28;20454;-84
2021/01/20 02:48:56;;;;;;;0.83;0.40;;;3.30;99.90;;;;;;5033263;28;20439;-85
2021/01/20 02:51:34;;;;;;;1.37;1.17;;;3.10;99.90;;;;;;5033026;28;20447;-85
2021/01/20 02:54:01;;;;;;;1.03;0.73;;;3.20;99.90;;;;;;5033800;28;20459;-84
2021/01/20 02:56:30;;;;;;;1.57;0.97;;;3.30;99.90;;;;;;5032943;28;20443;-85
2021/01/20 02:59:00;;;;;;;0.87;0.70;;;3.10;99.90;;;;;;5032953;28;20973;-85
2021/01/20 03:01:29;;;;;;;0.83;0.77;;;3.00;99.90;;;;;;5032974;28;20519;-86
2021/01/20 03:03:59;;;;;;;0.80;0.50;;;2.90;99.90;;;;;;5032863;28;20467;-84
2021/01/20 03:06:26;;;;;;;1.33;0.80;;;3.20;99.90;;;;;;5032018;28;20446;-86
2021/01/20 03:08:53;;;;;;;2.30;1.20;;;3.60;99.90;;;;;;5033116;28;20447;-85
2021/01/20 03:11:19;;;;;;;1.03;0.60;;;3.30;99.90;;;;;;5028925;28;20470;-87
2021/01/20 03:13:47;;;;;;;2.83;1.70;;;3.20;99.90;;;;;;5032786;28;20444;-86
2021/01/20 03:16:15;;;;;;;0.57;0.50;;;2.90;99.90;;;;;;5033790;28;20462;-85
2021/01/20 03:18:41;;;;;;;1.80;1.63;;;2.90;99.90;;;;;;5037853;28;20451;-84
2021/01/20 03:21:08;;;;;;;1.60;1.47;;;3.20;99.90;;;;;;5032689;28;20536;-86
2021/01/20 03:23:35;;;;;;;0.93;0.80;;;;;;;;;;5031509;28;20861;-85
2021/01/20 03:26:01;;;;;;;2.77;1.57;;;2.90;99.90;;;;;;5032838;28;20783;-87
2021/01/20 03:28:27;;;;;;;1.53;0.83;;;2.80;99.90;;;;;;5032704;28;20468;-85
2021/01/20 03:30:54;;;;;;;2.53;1.53;;;;;;;;;;5033996;28;20458;-84
2021/01/20 03:33:20;;;;;;;1.07;0.90;;;3.10;99.90;;;;;;5036737;28;20490;-85
2021/01/20 03:35:46;;;;;;;1.40;1.30;;;2.80;99.90;;;;;;5036641;28;21112;-87
2021/01/20 03:38:13;;;;;;;1.30;0.90;;;3.10;99.90;;;;;;5035552;28;20455;-86
2021/01/20 03:40:40;;;;;;;1.23;1.03;;;3.10;99.90;;;;;;5036451;28;20528;-85
2021/01/20 03:43:06;;;;;;;0.97;0.87;;;3.00;99.90;;;;;;5036550;28;20941;-85
2021/01/20 03:45:32;;;;;;;1.60;0.87;;;3.10;99.90;;;;;;5036590;28;20447;-85
2021/01/20 03:47:58;;;;;;;1.17;0.80;;;3.20;99.90;;;;;;5036549;28;20453;-86
2021/01/20 03:50:25;;;;;;;1.60;1.10;;;;;;;;;;5036364;28;20455;-85
2021/01/20 03:52:51;;;;;;;2.13;1.37;;;;;;;;;;5035122;28;20451;-85
2021/01/20 03:55:18;;;;;;;1.37;1.20;;;3.00;99.90;;;;;;5030409;28;20452;-84
2021/01/20 03:57:45;;;;;;;1.27;0.90;;;3.00;99.90;;;;;;5027206;28;20479;-87
2021/01/20 04:00:12;;;;;;;1.10;1.00;;;3.60;99.90;;;;;;5025323;28;20440;-86
2021/01/20 04:02:39;;;;;;;1.23;1.13;;;;;;;;;;5025135;28;20922;-85
2021/01/20 04:05:08;;;;;;;1.20;1.10;;;3.70;99.90;;;;;;5026779;28;20801;-84
2021/01/20 04:07:34;;;;;;;1.30;0.87;;;3.10;99.90;;;;;;5024460;28;20457;-85
2021/01/20 04:10:00;;;;;;;0.80;0.50;;;;;;;;;;5025183;28;20482;-87
2021/01/20 04:12:28;;;;;;;1.50;0.80;;;2.80;99.90;;;;;;5026633;28;20443;-87
2021/01/20 04:14:55;;;;;;;2.50;0.70;;;3.40;99.90;;;;;;5025330;28;20443;-85
2021/01/20 04:17:21;;;;;;;1.30;0.80;;;4.00;99.90;;;;;;5024890;28;20444;-84
2021/01/20 04:19:47;;;;;;;1.20;0.80;;;3.50;99.90;;;;;;5026542;28;20447;-86
2021/01/20 04:22:14;;;;;;;0.57;0.30;;;3.70;99.90;;;;;;5023779;28;20499;-84
2021/01/20 04:24:40;;;;;;;0.40;0.30;;;;;;;;;;5024812;28;20801;-85
2021/01/20 04:27:07;;;;;;;0.77;0.50;;;3.60;99.90;;;;;;5026386;28;20439;-85
2021/01/20 04:29:34;;;;;;;1.10;0.93;;;3.70;99.90;;;;;;5024784;28;20445;-86
2021/01/20 04:32:00;;;;;;;0.93;0.80;;;3.50;99.90;;;;;;5024719;28;20448;-83
2021/01/20 04:34:26;;;;;;;0.43;0.43;;;4.00;99.90;;;;;;5026665;28;20864;-84
2021/01/20 04:36:52;;;;;;;0.77;0.60;;;3.90;99.90;;;;;;5024795;28;20451;-84
2021/01/20 04:39:18;;;;;;;0.97;0.50;;;4.10;99.90;;;;;;5025517;28;20495;-86
2021/01/20 04:41:45;;;;;;;1.03;0.60;;;4.00;99.90;;;;;;5023859;28;20496;-83
2021/01/20 04:44:11;;;;;;;0.90;0.53;;;;;;;;;;5025258;28;20463;-85
2021/01/20 04:46:40;;;;;;;2.53;0.90;;;3.80;99.90;;;;;;5023273;28;20522;-86
2021/01/20 04:49:08;;;;;;;1.50;1.03;;;3.80;99.90;;;;;;5015701;28;20449;-85
2021/01/20 04:51:39;;;;;;;2.20;1.27;;;3.90;99.90;;;;;;5014266;28;20475;-85
2021/01/20 04:54:07;;;;;;;1.00;0.90;;;3.90;99.90;;;;;;5015338;28;20459;-84
2021/01/20 04:56:34;;;;;;;1.70;1.20;;;4.00;99.90;;;;;;5015223;28;20464;-85
2021/01/20 04:59:00;;;;;;;1.23;1.00;;;4.20;99.90;;;;;;5015437;28;20448;-84
2021/01/20 05:01:27;;;;;;;0.83;0.77;;;4.10;99.90;;;;;;5015207;28;20500;-86
2021/01/20 05:03:55;;;;;;;0.50;0.33;;;3.90;99.90;;;;;;5015209;28;20486;-85
2021/01/20 05:06:21;;;;;;;1.90;1.33;;;3.70;99.90;;;;;;5014005;28;20448;-85
2021/01/20 05:08:47;;;;;;;1.27;0.90;;;3.60;99.90;;;;;;5015410;28;20452;-84
2021/01/20 05:11:14;;;;;;;1.53;0.97;;;3.80;99.90;;;;;;5015067;28;21292;-84
2021/01/20 05:13:40;;;;;;;1.33;1.03;;;4.30;99.90;;;;;;5015101;28;20506;-85
2021/01/20 05:16:06;;;;;;;1.67;1.20;;;3.70;99.90;;;;;;5015176;28;20544;-84
2021/01/20 05:18:47;;;;;;;1.23;0.90;;;3.80;99.90;;;;;;5014964;28;20449;-85
2021/01/20 05:21:18;;;;;;;1.30;1.13;;;3.70;99.90;;;;;;5014793;28;20496;-84
2021/01/20 05:23:44;;;;;;;4.00;1.60;;;3.60;99.90;;;;;;5014633;28;20440;-86
2021/01/20 05:26:11;;;;;;;1.50;1.03;;;3.50;99.90;;;;;;5013296;28;20445;-86
2021/01/20 05:28:37;;;;;;;3.03;1.63;;;;;;;;;;5015106;28;20463;-86
2021/01/20 05:31:04;;;;;;;1.60;0.83;;;3.90;99.90;;;;;;5014973;28;20444;-86
2021/01/20 05:33:35;;;;;;;1.97;1.60;;;3.80;99.90;;;;;;5014695;28;20449;-84
2021/01/20 05:36:09;;;;;;;3.83;1.90;;;3.80;99.90;;;;;;5014807;28;20459;-84
2021/01/20 05:38:38;;;;;;;2.17;1.57;;;3.90;99.90;;;;;;5013498;28;20447;-86
2021/01/20 05:41:19;;;;;;;1.27;0.97;;;3.60;99.90;;;;;;5014541;28;20841;-84
2021/01/20 05:43:45;;;;;;;1.97;1.27;;;3.70;99.90;;;;;;5014556;28;20907;-85
2021/01/20 05:46:12;;;;;;;1.00;0.90;;;3.60;99.90;;;;;;5014544;28;20802;-84
2021/01/20 05:48:46;;;;;;;1.63;1.20;;;3.70;99.90;;;;;;5014524;28;20455;-84
2021/01/20 05:51:12;;;;;;;1.20;1.00;;;3.90;99.90;;;;;;5014440;28;20456;-86
2021/01/20 05:53:49;;;;;;;0.77;0.53;;;3.70;99.90;;;;;;5013253;28;20475;-84
2021/01/20 05:56:23;;;;;;;1.90;1.17;;;4.10;99.90;;;;;;5014474;28;20448;-86
2021/01/20 05:58:50;;;;;;;2.10;1.67;;;;;;;;;;5014248;28;20459;-85
2021/01/20 06:01:17;;;;;;;1.10;1.00;;;3.80;99.90;;;;;;5014021;28;20492;-85
2021/01/20 06:03:44;;;;;;;2.67;1.63;;;3.80;99.90;;;;;;5014454;28;20966;-86
2021/01/20 06:06:10;;;;;;;1.50;1.00;;;4.30;99.90;;;;;;5014188;28;20875;-86
2021/01/20 06:08:37;;;;;;;3.27;1.20;;;3.50;99.90;;;;;;5013125;28;20460;-85
2021/01/20 06:11:05;;;;;;;1.37;1.07;;;3.80;99.90;;;;;;5014120;28;20456;-86
2021/01/20 06:13:32;;;;;;;7.23;1.50;;;3.80;99.90;;;;;;5015123;28;20475;-85
2021/01/20 06:16:00;;;;;;;6.30;1.70;;;3.50;99.90;;;;;;5015331;28;20475;-85
2021/01/20 06:18:30;;;;;;;3.17;1.93;;;3.40;99.90;;;;;;5013928;28;20445;-84
2021/01/20 06:20:56;;;;;;;2.03;1.17;;;3.60;99.90;;;;;;5013887;28;20903;-85
2021/01/20 06:23:24;;;;;;;2.70;1.90;;;3.40;99.90;;;;;;5012468;28;20475;-85
2021/01/20 06:25:57;;;;;;;2.13;1.73;;;3.50;99.90;;;;;;5013595;28;20918;-85
2021/01/20 06:28:24;;;;;;;2.00;1.60;;;3.60;99.90;;;;;;5013800;28;20448;-84
2021/01/20 06:30:52;;;;;;;2.10;1.83;;;3.40;99.90;;;;;;5013740;28;20481;-85
2021/01/20 06:33:21;;;;;;;1.83;1.30;;;3.00;99.90;;;;;;5013555;28;20912;-86
2021/01/20 06:35:48;;;;;;;2.23;1.53;;;3.20;99.90;;;;;;5013624;28;20475;-86
2021/01/20 06:38:34;;;;;;;10.43;8.10;;;3.80;99.90;;;;;;5012414;28;20964;-83
2021/01/20 06:41:02;;;;;;;4.00;3.30;;;3.10;99.90;;;;;;5013786;28;20480;-87
2021/01/20 06:43:34;;;;;;;8.00;7.20;;;2.80;99.90;;;;;;5013436;28;20967;-85
2021/01/20 06:46:19;;;;;;;8.40;7.43;;;3.00;99.90;;;;;;5013748;28;20452;-85
2021/01/20 06:49:16;;;;;;;2.50;2.10;;;3.00;99.90;;;;;;5016271;28;20440;-86
2021/01/20 06:51:43;;;;;;;2.77;2.00;;;;;;;;;;5021192;28;20448;-86
2021/01/20 06:54:14;;;;;;;5.73;1.57;;;2.80;99.90;;;;;;5022282;28;20469;-84
2021/01/20 06:56:45;;;;;;;2.30;1.70;;;2.80;99.90;;;;;;5030287;28;20478;-85
2021/01/20 06:59:20;;;;;;;2.00;1.80;;;2.50;99.90;;;;;;5033088;28;20451;-86
2021/01/20 07:02:09;;;;;;;5.27;2.00;;;2.70;99.90;;;;;;5012868;28;21095;-85
2021/01/20 07:04:56;;;;;;;2.27;1.50;;;2.40;99.90;;;;;;5015877;28;20456;-84
2021/01/20 07:08:01;;;;;;;1.73;1.23;;;1.90;99.90;;;;;;5011350;28;20475;-85
2021/01/20 07:10:44;;;;;;;3.40;2.50;;;2.40;99.90;;;;;;5010352;28;20452;-87
2021/01/20 07:13:19;;;;;;;3.43;2.80;;;2.50;99.90;;;;;;5012674;28;20440;-85
2021/01/20 07:16:06;;;;;;;2.80;2.00;;;2.50;99.90;;;;;;5025209;28;20454;-87
2021/01/20 07:18:32;;;;;;;2.60;2.13;;;2.50;99.90;;;;;;5033067;28;20501;-88
2021/01/20 07:20:59;;;;;;;1.60;1.33;;;;;;;;;;5033100;28;20966;-86
2021/01/20 07:23:25;;;;;;;3.63;2.13;;;2.30;99.90;;;;;;5032189;28;20451;-84
2021/01/20 07:25:53;;;;;;;2.30;1.80;;;2.90;99.90;;;;;;5033485;28;20447;-86
2021/01/20 07:28:24;;;;;;;5.10;3.40;;;1.70;99.90;;;;;;5033164;28;20969;-86
2021/01/20 07:31:02;;;;;;;3.63;2.27;;;2.50;99.90;;;;;;5034054;28;20451;-85
2021/01/20 07:33:29;;;;;;;5.90;3.90;;;2.50;99.90;;;;;;5033720;28;20455;-84
2021/01/20 07:35:56;;;;;;;6.73;4.23;;;2.60;99.90;;;;;;5032728;28;20443;-83
2021/01/20 07:38:32;;;;;;;10.87;8.20;;;2.50;99.90;;;;;;5032081;28;20448;-87
2021/01/20 07:40:59;;;;;;;7.53;4.53;;;;;;;;;;5032566;28;20494;-86
2021/01/20 07:43:25;;;;;;;17.97;14.40;;;2.80;99.90;;;;;;5035943;28;20447;-84
2021/01/20 07:45:52;;;;;;;16.97;14.13;;;3.10;99.90;;;;;;5035393;28;20522;-84
2021/01/20 07:48:30;;;;;;;6.50;3.57;;;2.20;99.90;;;;;;5033005;28;20535;-85
2021/01/20 07:50:56;;;;;;;3.00;2.20;;;;;;;;;;5032433;28;20498;-85
2021/01/20 07:53:23;;;;;;;3.60;2.00;;;3.20;99.90;;;;;;5031198;28;20451;-85
2021/01/20 07:55:54;;;;;;;4.63;2.63;;;3.00;99.90;;;;;;5022873;28;20478;-84
2021/01/20 07:58:25;;;;;;;2.13;1.87;;;3.30;99.90;;;;;;5012343;28;20477;-86
2021/01/20 08:00:52;;;;;;;5.07;2.03;;;3.30;99.90;;;;;;5012242;28;20927;-85
2021/01/20 08:03:32;;;;;;;4.43;3.10;;;3.20;99.90;;;;;;5012745;28;20459;-84
2021/01/20 08:06:02;;;;;;;4.93;2.60;;;3.50;99.90;;;;;;5012545;28;20444;-86
2021/01/20 08:08:28;;;;;;;3.67;3.27;;;3.50;99.90;;;;;;5011305;28;20829;-85
2021/01/20 08:11:00;;;;;;;6.87;3.83;;;3.40;99.90;;;;;;5012485;28;20448;-86
2021/01/20 08:13:29;;;;;;;3.30;2.80;;;3.50;99.90;;;;;;5020375;28;20459;-84
2021/01/20 08:15:56;;;;;;;4.50;3.20;;;;;;;;;;5020058;28;20444;-83
2021/01/20 08:18:23;;;;;;;9.00;7.43;;;3.60;99.90;;;;;;5014042;28;20514;-83
2021/01/20 08:20:51;;;;;;;2.77;1.90;;;4.00;99.90;;;;;;5015737;28;20452;-84
2021/01/20 08:23:44;;;;;;;3.33;1.90;;;3.80;99.90;;;;;;5015771;28;20467;-85
2021/01/20 08:26:11;;;;;;;3.07;2.07;;;4.50;99.90;;;;;;5024465;28;20497;-85
2021/01/20 08:28:38;;;;;;;2.37;2.10;;;4.20;99.90;;;;;;5015861;28;20476;-84
2021/01/20 08:31:20;;;;;;;2.37;1.70;;;3.60;99.90;;;;;;5026904;28;20497;-85
2021/01/20 08:33:47;;;;;;;4.57;3.10;;;4.30;99.90;;;;;;5035609;28;20471;-84
2021/01/20 08:36:23;;;;;;;3.50;2.00;;;3.10;99.90;;;;;;5018437;28;20452;-85
2021/01/20 08:38:50;;;;;;;3.43;2.37;;;;;;;;;;5035367;28;20436;-84
2021/01/20 08:41:17;;;;;;;2.20;1.73;;;4.50;99.90;;;;;;5035314;28;20487;-85
2021/01/20 08:43:43;;;;;;;4.33;2.20;;;3.90;99.90;;;;;;5034568;28;20933;-83
2021/01/20 08:46:23;;;;;;;5.43;4.93;;;4.50;99.90;;;;;;5030090;28;20455;-83
2021/01/20 08:48:57;;;;;;;2.73;2.00;;;4.30;99.90;;;;;;5025768;28;20808;-84
2021/01/20 08:51:24;;;;;;;1.33;1.23;;;4.30;99.90;;;;;;5022258;28;20436;-83
2021/01/20 08:53:51;;;;;;;3.67;1.50;;;4.80;99.90;;;;;;5025064;28;20439;-86
2021/01/20 08:56:25;;;;;;;3.50;1.83;;;4.30;99.90;;;;;;5017803;28;20441;-85
2021/01/20 08:58:55;;;;;;;2.27;1.67;;;4.30;99.90;;;;;;5023162;28;20435;-84
2021/01/20 09:01:27;;;;;;;5.00;1.57;;;4.40;99.90;;;;;;5025603;28;20483;-84
2021/01/20 09:03:58;;;;;;;2.10;1.37;;;4.50;99.90;;;;;;5025106;28;20449;-85
2021/01/20 09:06:26;;;;;;;1.73;1.17;;;4.30;99.90;;;;;;5033061;28;20490;-84
2021/01/20 09:08:53;;;;;;;2.73;1.83;;;4.50;99.90;;;;;;5035438;28;20491;-84
2021/01/20 09:11:19;;;;;;;2.60;1.40;;;4.70;99.90;;;;;;5039558;28;20448;-84
2021/01/20 09:13:46;;;;;;;1.30;0.80;;;4.30;99.90;;;;;;5024238;28;20839;-84
2021/01/20 09:16:12;;;;;;;0.67;0.57;;;4.70;99.90;;;;;;5014761;28;20460;-83
2021/01/20 09:18:39;;;;;;;0.60;0.40;;;4.60;99.90;;;;;;5014848;28;20452;-83
2021/01/20 09:21:06;;;;;;;4.57;1.03;;;4.00;99.90;;;;;;5014593;28;20490;-84
2021/01/20 09:23:34;;;;;;;1.30;1.20;;;4.60;99.90;;;;;;5013374;28;20814;-84
2021/01/20 09:26:00;;;;;;;1.70;1.30;;;4.40;99.90;;;;;;5014491;28;20471;-83
2021/01/20 09:28:26;;;;;;;2.07;1.40;;;;;;;;;;5016945;28;20468;-84
2021/01/20 09:30:53;;;;;;;2.80;1.63;;;;;;;;;;5024839;28;20916;-83
2021/01/20 09:33:19;;;;;;;1.27;0.93;;;4.60;99.90;;;;;;5014269;28;20978;-83
2021/01/20 09:35:46;;;;;;;2.07;1.30;;;;;;;;;;5027303;28;20786;-88
2021/01/20 09:38:13;;;;;;;2.53;1.63;;;4.80;99.90;;;;;;5027937;28;20534;-84
2021/01/20 09:40:40;;;;;;;1.90;1.60;;;5.00;99.90;;;;;;5014150;28;20456;-85
2021/01/20 09:43:06;;;;;;;2.23;1.67;;;4.70;99.90;;;;;;5017060;28;20496;-84
2021/01/20 09:45:32;;;;;;;0.70;0.70;;;5.00;99.90;;;;;;5016108;28;20520;-86
2021/01/20 09:48:01;;;;;;;1.27;0.87;;;4.90;99.90;;;;;;5027684;28;20451;-86
2021/01/20 09:50:33;;;;;;;3.80;1.80;;;5.00;99.90;;;;;;5019237;28;20444;-85
2021/01/20 09:52:59;;;;;;;3.80;1.90;;;5.20;99.90;;;;;;5013351;28;20520;-85
2021/01/20 09:55:26;;;;;;;2.87;1.83;;;;;;;;;;5014431;28;21067;-86
2021/01/20 09:57:53;;;;;;;2.20;1.47;;;5.20;99.90;;;;;;5014054;28;20479;-83
2021/01/20 10:00:19;;;;;;;1.47;0.70;;;5.10;99.90;;;;;;5014107;28;20475;-85
2021/01/20 10:02:46;;;;;;;1.83;1.00;;;5.00;99.90;;;;;;5014075;28;21013;-85
2021/01/20 10:05:12;;;;;;;2.20;1.70;;;4.90;99.90;;;;;;5014196;28;20480;-85
2021/01/20 10:07:39;;;;;;;2.63;1.57;;;5.10;99.90;;;;;;5013017;28;20522;-84
2021/01/20 10:10:07;;;;;;;2.07;1.47;;;4.50;99.90;;;;;;5014089;28;20452;-85
2021/01/20 10:12:33;;;;;;;2.00;1.70;;;5.30;99.90;;;;;;5013658;28;20455;-84
2021/01/20 10:15:00;;;;;;;3.73;1.60;;;5.50;99.90;;;;;;5013962;28;20444;-86
2021/01/20 10:17:27;;;;;;;1.47;1.07;;;;;;;;;;5013665;28;20966;-86
2021/01/20 10:19:53;;;;;;;1.73;1.63;;;5.40;99.90;;;;;;5017829;28;20452;-85
2021/01/20 10:22:20;;;;;;;2.80;2.03;;;5.30;99.90;;;;;;5011627;28;20519;-86
2021/01/20 10:24:46;;;;;;;3.90;1.93;;;5.80;99.90;;;;;;5013582;28;21030;-84
2021/01/20 10:27:12;;;;;;;2.10;1.17;;;;;;;;;;5013756;28;20449;-84
2021/01/20 10:29:39;;;;;;;3.27;2.40;;;5.80;99.90;;;;;;5013507;28;20460;-86
2021/01/20 10:32:07;;;;;;;2.77;1.70;;;5.80;99.90;;;;;;5013472;28;20456;-85
2021/01/20 10:34:33;;;;;;;3.40;1.93;;;5.90;99.90;;;;;;5013433;28;20532;-86
2021/01/20 10:37:00;;;;;;;8.23;3.60;;;5.80;99.90;;;;;;5012085;28;20451;-86
2021/01/20 10:39:26;;;;;;;3.17;2.33;;;6.00;99.90;;;;;;5014790;28;20452;-84
2021/01/20 10:41:53;;;;;;;2.13;1.30;;;6.60;99.90;;;;;;5013244;28;20487;-86
2021/01/20 10:44:19;;;;;;;3.27;2.30;;;6.20;99.90;;;;;;5013389;28;20511;-88
2021/01/20 10:46:47;;;;;;;4.20;2.80;;;;;;;;;;5013555;28;20452;-84
2021/01/20 10:49:15;;;;;;;3.63;3.30;;;6.60;99.90;;;;;;5013723;28;20460;-86
2021/01/20 10:51:41;;;;;;;2.67;2.00;;;6.60;99.90;;;;;;5011828;28;20459;-88
2021/01/20 10:54:07;;;;;;;2.70;2.17;;;6.70;99.90;;;;;;5012737;28;20449;-87
2021/01/20 10:56:33;;;;;;;2.20;2.00;;;6.80;99.90;;;;;;5013265;28;20483;-85
2021/01/20 10:59:00;;;;;;;12.67;11.63;;;6.50;99.90;;;;;;5015192;28;20463;-86
2021/01/20 11:01:27;;;;;;;4.27;3.50;;;6.20;99.90;;;;;;5030368;28;20846;-86
2021/01/20 11:03:54;;;;;;;4.43;2.90;;;;;;;;;;5024721;28;20467;-85
2021/01/20 11:06:21;;;;;;;9.40;4.70;;;6.70;99.90;;;;;;5012184;28;20523;-85
2021/01/20 11:08:47;;;;;;;11.37;10.27;;;6.70;99.90;;;;;;5013161;28;20453;-86
2021/01/20 11:11:14;;;;;;;8.13;7.30;;;6.70;99.90;;;;;;5027014;28;20463;-86
2021/01/20 11:13:41;;;;;;;9.33;6.90;;;;;;;;;;5028785;28;20448;-86
2021/01/20 11:16:07;;;;;;;3.77;3.20;;;7.00;99.90;;;;;;5017601;28;20448;-85
2021/01/20 11:18:34;;;;;;;2.70;2.30;;;6.80;99.90;;;;;;5032968;28;20456;-87
2021/01/20 11:21:01;;;;;;;3.53;2.73;;;6.50;99.90;;;;;;5032597;28;20451;-86
2021/01/20 11:23:35;;;;;;;5.17;3.80;;;6.60;99.90;;;;;;5031089;28;20459;-86
2021/01/20 11:26:02;;;;;;;4.60;3.60;;;6.40;99.90;;;;;;5032552;28;20447;-85
2021/01/20 11:28:28;;;;;;;5.50;4.10;;;6.50;99.90;;;;;;5032695;28;20455;-88
2021/01/20 11:30:55;;;;;;;5.70;5.10;;;;;;;;;;5023861;28;20489;-85
2021/01/20 11:33:21;;;;;;;4.07;3.17;;;;;;;;;;5022057;28;20950;-86
2021/01/20 11:35:48;;;;;;;4.33;3.10;;;6.20;99.90;;;;;;5032815;28;20447;-85
2021/01/20 11:38:14;;;;;;;8.50;3.40;;;6.80;99.90;;;;;;5031382;28;20827;-88
2021/01/20 11:40:41;;;;;;;3.57;2.93;;;6.20;99.90;;;;;;5032396;28;20482;-86
2021/01/20 11:43:07;;;;;;;4.93;3.20;;;6.30;99.90;;;;;;5013879;28;20488;-85
2021/01/20 11:45:35;;;;;;;3.70;2.80;;;6.30;99.90;;;;;;5015354;28;20448;-85
2021/01/20 11:48:02;;;;;;;3.83;2.80;;;6.50;99.90;;;;;;5012761;28;20448;-87
2021/01/20 11:50:29;;;;;;;3.90;2.53;;;;;;;;;;5012636;28;20506;-86
2021/01/20 11:52:56;;;;;;;4.60;2.33;;;6.50;99.90;;;;;;5023453;28;20509;-86
2021/01/20 11:55:23;;;;;;;6.10;2.20;;;6.40;99.90;;;;;;5036411;28;20455;-85
2021/01/20 11:57:50;;;;;;;12.90;10.97;;;6.20;99.90;;;;;;5035956;28;20479;-85
2021/01/20 12:00:18;;;;;;;4.03;2.70;;;6.10;99.90;;;;;;5036233;28;20447;-84
2021/01/20 12:02:45;;;;;;;6.67;6.07;;;6.00;99.90;;;;;;5036110;28;20491;-86
2021/01/20 12:05:13;;;;;;;4.27;2.90;;;6.50;99.90;;;;;;5035563;28;20463;-85
2021/01/20 12:07:40;;;;;;;2.97;2.40;;;6.30;99.90;;;;;;5021003;28;20855;-86
2021/01/20 12:10:07;;;;;;;4.27;2.70;;;6.20;99.90;;;;;;5019608;28;20522;-89
2021/01/20 12:12:34;;;;;;;11.17;2.50;;;6.20;99.90;;;;;;5016931;28;20460;-90
2021/01/20 12:15:01;;;;;;;2.80;2.43;;;6.40;99.90;;;;;;5016483;28;20459;-88
2021/01/20 12:17:27;;;;;;;6.03;2.23;;;5.70;99.90;;;;;;5016292;28;20456;-90
2021/01/20 12:19:54;;;;;;;2.40;2.00;;;;;;;;;;5014940;28;20459;-89
2021/01/20 12:22:20;;;;;;;1.67;1.33;;;6.00;99.90;;;;;;5015638;28;20579;-87
2021/01/20 12:24:46;;;;;;;4.70;3.63;;;6.10;99.90;;;;;;5018272;28;20833;-86
2021/01/20 12:27:13;;;;;;;3.53;2.70;;;6.10;99.90;;;;;;5027686;28;20951;-88
2021/01/20 12:29:39;;;;;;;3.73;2.80;;;;;;;;;;5027371;28;20491;-88
2021/01/20 12:32:07;;;;;;;5.10;2.90;;;6.30;99.90;;;;;;5019412;28;20802;-86
2021/01/20 12:34:36;;;;;;;2.00;1.23;;;6.10;99.90;;;;;;5024918;28;20451;-87
2021/01/20 12:37:02;;;;;;;3.00;1.77;;;6.70;99.90;;;;;;5034460;28;20475;-86
2021/01/20 12:39:28;;;;;;;2.10;1.80;;;5.90;99.90;;;;;;5035662;28;20455;-85
2021/01/20 12:41:55;;;;;;;4.07;2.60;;;6.00;99.90;;;;;;5035363;28;20864;-87
2021/01/20 12:44:21;;;;;;;3.90;3.07;;;6.40;99.90;;;;;;5035574;28;20447;-87
2021/01/20 12:46:48;;;;;;;3.40;2.17;;;;;;;;;;5021403;28;20476;-86
2021/01/20 12:49:15;;;;;;;2.17;1.97;;;6.30;99.90;;;;;;5035613;28;20951;-86
2021/01/20 12:51:41;;;;;;;3.60;2.50;;;6.10;99.90;;;;;;5024819;28;20488;-87
2021/01/20 12:54:08;;;;;;;4.17;1.40;;;6.10;99.90;;;;;;5015552;28;20452;-86
2021/01/20 12:56:35;;;;;;;1.97;1.80;;;6.30;99.90;;;;;;5015448;28;20491;-85
2021/01/20 12:59:01;;;;;;;2.57;1.80;;;6.20;99.90;;;;;;5015396;28;21090;-88
2021/01/20 13:01:27;;;;;;;6.43;2.87;;;;;;;;;;5015371;28;20464;-86
2021/01/20 13:03:54;;;;;;;2.00;1.33;;;6.40;99.90;;;;;;5023801;28;20451;-85
2021/01/20 13:06:21;;;;;;;2.50;1.90;;;6.40;99.90;;;;;;5034491;28;20809;-85
2021/01/20 13:08:48;;;;;;;3.00;2.50;;;;;;;;;;5034359;28;20455;-86
2021/01/20 13:11:15;;;;;;;13.93;2.63;;;;;;;;;;5034693;28;20474;-87
2021/01/20 13:13:42;;;;;;;4.20;3.47;;;6.50;99.90;;;;;;5034489;28;20459;-85
2021/01/20 13:16:09;;;;;;;3.20;2.50;;;6.90;99.90;;;;;;5034848;28;20451;-88